Time;durP1;ratioP1;P1;durP2;ratioP2;P2;SDS_P1;SDS_P2;PMS_P1;PMS_P2;Temp;Humidity;BMP_temperature;BMP_pressure;BME280_temperature;BME280_humidity;BME280_pressure;Samples;Min_cycle;Max_cycle;Signal;HPM_P1;HPM_P2
2023/12/12 00:00:29;;;;;;;3.90;3.50;;;;;;;13.94;51.12;97019.12;105594;1256;61199;-37
2023/12/12 00:02:57;;;;;;;4.10;3.50;;;;;;;13.94;51.12;97019.59;105363;1261;74603;-36
2023/12/12 00:05:24;;;;;;;4.10;3.50;;;;;;;13.94;51.16;97020.29;105194;1260;66098;-35
2023/12/12 00:07:52;;;;;;;6.00;4.00;;;;;;;13.94;51.12;97017.44;105715;1260;72628;-35
2023/12/12 00:10:20;;;;;;;4.80;3.60;;;;;;;13.94;51.25;97016.05;105419;1270;61327;-36
2023/12/12 00:12:47;;;;;;;3.90;3.50;;;;;;;13.94;51.12;97015.06;105378;1256;61340;-37
2023/12/12 00:15:15;;;;;;;4.10;3.70;;;;;;;13.94;51.07;97014.97;105275;1261;74673;-36
2023/12/12 00:17:42;;;;;;;4.30;3.80;;;;;;;13.94;50.97;97014.52;105437;1269;66234;-36
2023/12/12 00:20:10;;;;;;;3.60;3.30;;;;;;;13.94;51.07;97016.05;105454;1261;72390;-36
2023/12/12 00:22:38;;;;;;;3.90;3.50;;;;;;;13.94;51.01;97019.23;105595;1262;61228;-36
2023/12/12 00:25:05;;;;;;;3.40;3.10;;;;;;;13.94;51.00;97021.98;105570;1262;61316;-36
2023/12/12 00:27:33;;;;;;;4.00;3.60;;;;;;;13.94;51.14;97021.05;105647;1262;73236;-36
2023/12/12 00:30:00;;;;;;;4.10;3.60;;;;;;;13.94;51.02;97019.44;105635;1262;66100;-36
2023/12/12 00:32:28;;;;;;;4.10;3.50;;;;;;;13.94;50.97;97024.60;105622;1261;72608;-36
2023/12/12 00:34:55;;;;;;;3.60;3.20;;;;;;;13.93;50.92;97024.02;105557;1261;61234;-37
2023/12/12 00:37:23;;;;;;;3.80;3.50;;;;;;;13.93;51.06;97030.65;105612;1260;61285;-37
2023/12/12 00:39:50;;;;;;;3.70;3.40;;;;;;;13.94;50.97;97029.73;105592;1266;74446;-37
2023/12/12 00:42:18;;;;;;;4.20;3.60;;;;;;;13.94;51.06;97022.66;105670;1262;65861;-37
2023/12/12 00:44:45;;;;;;;4.10;3.50;;;;;;;13.94;51.03;97019.05;105565;1261;72277;-37
2023/12/12 00:47:12;;;;;;;3.60;3.30;;;;;;;13.94;51.03;97021.05;105546;1260;61357;-37
2023/12/12 00:49:40;;;;;;;4.20;3.60;;;;;;;13.93;50.92;97015.04;105426;1260;61345;-35
2023/12/12 00:52:07;;;;;;;3.90;3.50;;;;;;;13.94;50.89;97014.42;105249;1258;75530;-37
2023/12/12 00:54:34;;;;;;;3.60;3.20;;;;;;;13.94;50.94;97015.35;105432;1260;66126;-35
2023/12/12 00:57:03;;;;;;;3.80;3.40;;;;;;;13.93;50.92;97017.41;105210;1260;72398;-35
2023/12/12 00:59:30;;;;;;;4.10;3.60;;;;;;;13.93;50.95;97009.18;105547;1260;61233;-35
2023/12/12 01:01:58;;;;;;;4.10;3.20;;;;;;;13.93;50.96;97006.34;105387;1260;61281;-36
2023/12/12 01:04:25;;;;;;;4.20;3.60;;;;;;;13.93;50.90;97002.80;105146;1257;74590;-36
2023/12/12 01:06:52;;;;;;;4.50;3.20;;;;;;;13.93;50.99;96999.70;105234;1260;66151;-36
2023/12/12 01:09:20;;;;;;;5.50;3.40;;;;;;;13.94;50.90;96997.95;105200;1257;72338;-36
2023/12/12 01:11:47;;;;;;;3.90;3.40;;;;;;;13.93;51.04;96999.26;105207;1262;61187;-36
2023/12/12 01:14:14;;;;;;;4.70;3.70;;;;;;;13.94;51.05;96999.90;105346;1257;61346;-36
2023/12/12 01:16:42;;;;;;;4.20;3.70;;;;;;;13.93;50.99;97000.34;105242;1261;74416;-36
2023/12/12 01:19:09;;;;;;;5.10;3.70;;;;;;;13.93;50.92;96998.03;105375;1260;66107;-37
2023/12/12 01:21:37;;;;;;;3.40;3.10;;;;;;;13.93;50.91;96994.20;105475;1260;72619;-36
2023/12/12 01:24:05;;;;;;;3.90;3.50;;;;;;;13.93;50.95;96994.36;105534;1270;61464;-36
2023/12/12 01:26:32;;;;;;;4.20;3.80;;;;;;;13.94;50.89;96990.58;105549;1260;61358;-36
2023/12/12 01:29:00;;;;;;;4.00;3.60;;;;;;;13.93;50.88;96989.20;105349;1267;74954;-36
2023/12/12 01:31:27;;;;;;;4.30;3.70;;;;;;;13.93;50.95;96986.13;105217;1260;65973;-36
2023/12/12 01:33:54;;;;;;;3.50;3.20;;;;;;;13.94;50.93;96981.21;105346;1260;72381;-36
2023/12/12 01:36:22;;;;;;;4.30;3.60;;;;;;;13.93;50.91;96979.13;105351;1260;61305;-36
2023/12/12 01:38:49;;;;;;;4.90;3.20;;;;;;;13.94;50.86;96981.43;105501;1260;61239;-36
2023/12/12 01:41:18;;;;;;;4.10;3.70;;;;;;;13.94;50.83;96976.59;105586;1261;74380;-36
2023/12/12 01:43:45;;;;;;;4.40;3.70;;;;;;;13.93;50.97;96976.98;105422;1269;66496;-37
2023/12/12 01:46:14;;;;;;;3.70;3.40;;;;;;;13.94;50.84;96980.52;105355;1260;73152;-36
2023/12/12 01:48:42;;;;;;;3.80;3.40;;;;;;;13.93;50.77;96973.74;105252;1260;61366;-37
2023/12/12 01:51:09;;;;;;;4.20;3.60;;;;;;;13.93;50.93;96973.27;105443;1257;61216;-36
2023/12/12 01:53:43;;;;;;;4.00;3.50;;;;;;;13.93;50.80;96967.51;105545;1260;74674;-36
2023/12/12 01:56:10;;;;;;;4.20;3.60;;;;;;;13.93;50.92;96960.27;105652;1258;65096;-36
2023/12/12 01:58:38;;;;;;;4.10;3.70;;;;;;;13.94;50.94;96960.28;105468;1257;72494;-36
2023/12/12 02:01:05;;;;;;;4.00;3.30;;;;;;;13.93;50.87;96952.36;105518;1270;61305;-36
2023/12/12 02:03:33;;;;;;;3.90;3.50;;;;;;;13.94;50.83;96948.05;105355;1261;61275;-36
2023/12/12 02:06:00;;;;;;;4.10;3.30;;;;;;;13.93;50.82;96950.59;105428;1258;74476;-36
2023/12/12 02:08:28;;;;;;;4.00;3.60;;;;;;;13.94;50.73;96952.36;105516;1261;66090;-35
2023/12/12 02:10:56;;;;;;;5.00;3.80;;;;;;;13.93;50.78;96950.73;105646;1258;72359;-35
2023/12/12 02:13:23;;;;;;;3.90;3.30;;;;;;;13.93;50.85;96945.44;105393;1268;61304;-35
2023/12/12 02:15:50;;;;;;;3.90;3.40;;;;;;;13.93;50.86;96944.95;105546;1260;61337;-35
2023/12/12 02:18:18;;;;;;;5.20;3.70;;;;;;;13.93;50.86;96939.89;105376;1261;74572;-36
2023/12/12 02:20:45;;;;;;;4.30;3.80;;;;;;;13.93;50.74;96942.52;105729;1260;64123;-36
2023/12/12 02:23:12;;;;;;;4.10;3.40;;;;;;;13.94;50.86;96944.13;105210;1257;72376;-36
2023/12/12 02:25:40;;;;;;;3.80;3.50;;;;;;;13.93;50.77;96943.72;105690;1260;61330;-37
2023/12/12 02:28:10;;;;;;;3.80;3.40;;;;;;;13.93;50.76;96938.59;105489;1257;61270;-36
2023/12/12 02:30:37;;;;;;;3.90;3.60;;;;;;;13.93;50.75;96942.35;105538;1257;74595;-36
2023/12/12 02:33:04;;;;;;;3.80;3.40;;;;;;;13.93;50.84;96943.65;105596;1260;65965;-36
2023/12/12 02:35:32;;;;;;;4.10;3.40;;;;;;;13.94;50.82;96944.83;105595;1257;72565;-36
2023/12/12 02:38:00;;;;;;;4.00;3.40;;;;;;;13.93;50.82;96940.20;105584;1260;61953;-36
2023/12/12 02:40:27;;;;;;;6.90;3.70;;;;;;;13.93;50.81;96948.88;105504;1261;61397;-36
2023/12/12 02:42:54;;;;;;;3.90;3.50;;;;;;;13.93;50.69;96945.66;105545;1260;74406;-36
2023/12/12 02:45:22;;;;;;;4.00;3.30;;;;;;;13.93;50.78;96945.34;105417;1260;66209;-36
2023/12/12 02:47:50;;;;;;;4.10;2.90;;;;;;;13.93;50.81;96944.11;105162;1261;73224;-37
2023/12/12 02:50:19;;;;;;;5.80;3.50;;;;;;;13.93;50.70;96949.88;105609;1257;61345;-35
2023/12/12 02:52:49;;;;;;;4.10;3.60;;;;;;;13.93;50.84;96952.11;105650;1259;61126;-35
2023/12/12 02:55:17;;;;;;;3.80;3.30;;;;;;;13.93;50.76;96949.64;105597;1257;74555;-36
2023/12/12 02:57:44;;;;;;;3.90;3.40;;;;;;;13.93;50.80;96957.86;105626;1260;65419;-35
2023/12/12 03:00:12;;;;;;;3.40;3.00;;;;;;;13.93;50.79;96957.27;105428;1257;72552;-35
2023/12/12 03:02:39;;;;;;;4.00;3.60;;;;;;;13.93;50.76;96956.36;105691;1260;61362;-35
2023/12/12 03:05:07;;;;;;;4.80;3.60;;;;;;;13.93;50.76;96961.73;105621;1258;61343;-36
2023/12/12 03:07:35;;;;;;;4.60;3.80;;;;;;;13.94;50.76;96963.60;105654;1267;74648;-36
2023/12/12 03:10:03;;;;;;;5.30;3.70;;;;;;;13.94;50.75;96968.77;105601;1260;64748;-36
2023/12/12 03:12:31;;;;;;;3.70;3.40;;;;;;;13.94;50.76;96975.66;105525;1257;71364;-35
2023/12/12 03:14:58;;;;;;;3.80;3.50;;;;;;;13.94;50.76;96977.15;105210;1269;61253;-36
2023/12/12 03:17:25;;;;;;;4.30;3.50;;;;;;;13.93;50.84;96977.04;105498;1260;61381;-36
2023/12/12 03:19:53;;;;;;;3.90;3.30;;;;;;;13.94;50.75;96971.30;105515;1258;74645;-36
2023/12/12 03:22:20;;;;;;;5.60;3.50;;;;;;;13.94;50.80;96969.21;105578;1257;65731;-34
2023/12/12 03:24:48;;;;;;;3.60;3.30;;;;;;;13.94;50.61;96970.29;105528;1258;71438;-37
2023/12/12 03:27:15;;;;;;;3.90;3.50;;;;;;;13.94;50.64;96967.84;105261;1262;61274;-35
2023/12/12 03:29:42;;;;;;;4.10;3.70;;;;;;;13.93;50.69;96967.44;105249;1257;61337;-35
2023/12/12 03:32:09;;;;;;;3.90;3.30;;;;;;;13.94;50.67;96966.70;105443;1260;74306;-35
2023/12/12 03:34:37;;;;;;;3.80;3.50;;;;;;;13.94;50.70;96967.21;105390;1260;66181;-35
2023/12/12 03:37:05;;;;;;;4.10;3.70;;;;;;;13.94;50.64;96966.84;105443;1258;72617;-35
2023/12/12 03:39:35;;;;;;;3.70;3.00;;;;;;;13.94;50.75;96966.38;105593;1260;61222;-35
2023/12/12 03:42:03;;;;;;;5.80;3.90;;;;;;;13.93;50.69;96965.28;105635;1258;61321;-35
2023/12/12 03:44:31;;;;;;;3.90;3.60;;;;;;;13.94;50.69;96961.67;105444;1257;73215;-36
2023/12/12 03:46:58;;;;;;;4.60;3.40;;;;;;;13.94;50.64;96961.30;105566;1262;66595;-35
2023/12/12 03:49:25;;;;;;;3.70;3.40;;;;;;;13.94;50.67;96956.30;105559;1261;72650;-35
2023/12/12 03:51:53;;;;;;;3.90;3.50;;;;;;;13.94;50.72;96958.21;105435;1260;61241;-35
2023/12/12 03:54:20;;;;;;;4.10;3.70;;;;;;;13.94;50.68;96956.29;105529;1257;61181;-35
2023/12/12 03:56:48;;;;;;;4.20;3.80;;;;;;;13.94;50.72;96962.52;105574;1260;74580;-35
2023/12/12 03:59:15;;;;;;;4.60;3.50;;;;;;;13.94;50.65;96963.45;105597;1260;65919;-35
2023/12/12 04:01:48;;;;;;;3.60;3.30;;;;;;;13.93;50.66;96965.66;105656;1258;72563;-35
2023/12/12 04:04:17;;;;;;;3.90;3.50;;;;;;;13.94;50.52;96969.59;105607;1257;61390;-36
2023/12/12 04:06:48;;;;;;;4.20;3.80;;;;;;;13.94;50.57;96966.36;105669;1260;61139;-36
2023/12/12 04:09:15;;;;;;;6.80;3.60;;;;;;;13.94;50.63;96967.36;105556;1260;74558;-36
2023/12/12 04:11:42;;;;;;;4.10;3.20;;;;;;;13.94;50.68;96967.90;105531;1258;63759;-36
2023/12/12 04:14:10;;;;;;;4.70;3.20;;;;;;;13.94;50.73;96974.76;105180;1257;72616;-36
2023/12/12 04:16:38;;;;;;;3.70;3.30;;;;;;;13.94;50.74;96981.59;105261;1260;61190;-36
2023/12/12 04:19:05;;;;;;;4.70;3.70;;;;;;;13.94;50.69;96980.52;105548;1257;61289;-36
2023/12/12 04:21:33;;;;;;;3.80;3.40;;;;;;;13.93;50.54;96982.80;105393;1261;74652;-35
2023/12/12 04:24:00;;;;;;;3.70;3.30;;;;;;;13.94;50.63;96986.65;105204;1260;64040;-36
2023/12/12 04:26:29;;;;;;;3.90;3.50;;;;;;;13.94;50.57;96984.23;105239;1257;72392;-36
2023/12/12 04:28:56;;;;;;;4.30;3.60;;;;;;;13.94;50.59;96987.35;105156;1260;61241;-35
2023/12/12 04:31:24;;;;;;;3.70;3.30;;;;;;;13.94;50.78;96985.90;105157;1258;61346;-36
2023/12/12 04:33:51;;;;;;;4.80;3.40;;;;;;;13.93;50.68;96983.05;105163;1256;74625;-36
2023/12/12 04:36:20;;;;;;;3.90;3.40;;;;;;;13.94;50.61;96986.52;105193;1260;65801;-36
2023/12/12 04:38:48;;;;;;;4.20;3.40;;;;;;;13.94;50.67;96987.83;105181;1257;72604;-36
2023/12/12 04:41:15;;;;;;;4.20;3.60;;;;;;;13.94;50.53;96990.91;105247;1259;61248;-36
2023/12/12 04:43:49;;;;;;;3.90;3.50;;;;;;;13.94;50.65;96986.27;105409;1258;61317;-37
2023/12/12 04:46:19;;;;;;;3.70;3.40;;;;;;;13.93;50.50;96986.50;105081;1258;73515;-36
2023/12/12 04:48:47;;;;;;;3.50;3.10;;;;;;;13.94;50.52;96984.12;105562;1260;66265;-36
2023/12/12 04:51:15;;;;;;;3.80;3.50;;;;;;;13.93;50.53;96978.42;105509;1257;72395;-36
2023/12/12 04:53:42;;;;;;;4.90;3.40;;;;;;;13.93;50.58;96977.89;105630;1260;61245;-36
2023/12/12 04:56:09;;;;;;;6.20;3.30;;;;;;;13.94;50.56;96978.89;105621;1257;61325;-36
2023/12/12 04:58:37;;;;;;;4.20;3.80;;;;;;;13.94;50.45;96978.89;105594;1256;73470;-36
2023/12/12 05:01:04;;;;;;;3.70;3.30;;;;;;;13.94;50.60;96978.36;105236;1260;65154;-36
2023/12/12 05:03:32;;;;;;;4.00;3.60;;;;;;;13.94;50.49;96974.75;109044;1256;72424;-36
2023/12/12 05:06:00;;;;;;;4.70;3.70;;;;;;;13.94;50.72;96977.45;109082;1257;59088;-36
2023/12/12 05:08:28;;;;;;;4.30;3.60;;;;;;;13.94;50.62;96979.08;109144;1256;60246;-36
2023/12/12 05:10:55;;;;;;;4.20;3.80;;;;;;;13.96;50.52;96980.36;109116;1256;73818;-36
2023/12/12 05:13:22;;;;;;;4.20;3.40;;;;;;;13.97;50.60;96977.99;109094;1256;66286;-36
2023/12/12 05:15:49;;;;;;;5.30;3.90;;;;;;;13.98;50.57;96980.96;107690;1255;72296;-36
2023/12/12 05:18:17;;;;;;;4.20;3.70;;;;;;;13.99;50.44;96980.23;105209;1260;61186;-35
2023/12/12 05:20:45;;;;;;;4.60;3.50;;;;;;;14.00;50.51;96983.11;105396;1260;61343;-37
2023/12/12 05:23:12;;;;;;;4.00;3.40;;;;;;;14.01;50.43;96982.39;105358;1260;75709;-35
2023/12/12 05:25:42;;;;;;;4.90;3.30;;;;;;;14.02;50.30;96986.08;105970;1255;65559;-35
2023/12/12 05:28:10;;;;;;;4.20;3.50;;;;;;;14.02;50.54;96986.93;105547;1256;72527;-34
2023/12/12 05:30:37;;;;;;;3.70;3.30;;;;;;;14.02;50.34;96986.07;105919;1260;61258;-35
2023/12/12 05:33:07;;;;;;;3.90;3.40;;;;;;;14.02;50.22;96979.70;105391;1256;61271;-36
2023/12/12 05:35:34;;;;;;;5.10;3.50;;;;;;;14.02;50.30;96983.86;105379;1258;74618;-35
2023/12/12 05:38:06;;;;;;;4.10;3.70;;;;;;;14.02;50.37;96983.09;105538;1259;65686;-36
2023/12/12 05:40:34;;;;;;;3.50;3.20;;;;;;;14.02;50.31;96979.77;105713;1256;72614;-37
2023/12/12 05:43:01;;;;;;;3.80;3.50;;;;;;;14.01;50.34;96978.98;105246;1260;61227;-37
2023/12/12 05:45:29;;;;;;;3.50;3.20;;;;;;;14.01;50.29;96981.66;105794;1260;61144;-35
2023/12/12 05:47:56;;;;;;;4.20;3.50;;;;;;;14.01;50.36;96976.53;105343;1261;74447;-35
2023/12/12 05:50:24;;;;;;;4.80;3.70;;;;;;;14.00;50.27;96980.11;105218;1260;64123;-37
2023/12/12 05:52:51;;;;;;;4.60;3.80;;;;;;;14.00;50.37;96976.40;105419;1256;72482;-36
2023/12/12 05:55:19;;;;;;;3.60;3.20;;;;;;;14.00;50.28;96984.26;105226;1260;61321;-36
2023/12/12 05:57:48;;;;;;;4.60;3.80;;;;;;;14.00;50.30;96982.26;105391;1258;61349;-36
2023/12/12 06:00:16;;;;;;;5.00;3.40;;;;;;;13.99;50.36;96974.39;105614;1260;74668;-36
2023/12/12 06:02:43;;;;;;;3.80;3.30;;;;;;;13.99;50.25;96979.84;105644;1260;65491;-36
2023/12/12 06:05:10;;;;;;;3.70;3.40;;;;;;;13.98;50.25;96989.83;105217;1256;72462;-36
2023/12/12 06:07:38;;;;;;;4.20;3.70;;;;;;;13.99;50.32;96989.08;105250;1260;61238;-35
2023/12/12 06:10:08;;;;;;;3.70;3.30;;;;;;;13.98;50.31;96987.42;105539;1257;61274;-35
2023/12/12 06:12:35;;;;;;;4.40;3.70;;;;;;;13.98;50.30;96985.49;105652;1256;74598;-35
2023/12/12 06:15:07;;;;;;;3.70;3.30;;;;;;;13.98;50.30;96993.58;105465;1260;66605;-35
2023/12/12 06:17:35;;;;;;;3.70;3.30;;;;;;;13.97;50.25;96988.25;105333;1256;72666;-35
2023/12/12 06:20:04;;;;;;;4.10;3.70;;;;;;;13.97;50.23;96986.48;105474;1256;61231;-35
2023/12/12 06:22:32;;;;;;;4.20;3.40;;;;;;;13.97;50.34;96991.83;105311;1255;61153;-35
2023/12/12 06:24:59;;;;;;;4.10;3.70;;;;;;;13.97;50.30;96991.45;105393;1262;75225;-35
2023/12/12 06:27:26;;;;;;;4.40;3.90;;;;;;;13.97;50.45;96993.92;105466;1260;66122;-34
2023/12/12 06:29:54;;;;;;;5.00;4.30;;;;;;;13.97;50.36;96996.02;105562;1257;72319;-35
2023/12/12 06:32:22;;;;;;;4.40;4.00;;;;;;;14.00;50.46;97001.17;105360;1260;61231;-35
2023/12/12 06:34:49;;;;;;;6.00;4.20;;;;;;;14.03;50.79;96995.20;105312;1256;61228;-36
2023/12/12 06:37:17;;;;;;;5.10;4.20;;;;;;;14.06;51.15;96995.52;105377;1257;74762;-37
2023/12/12 06:39:45;;;;;;;7.40;4.20;;;;;;;14.08;51.14;97001.07;105547;1260;65707;-34
2023/12/12 06:42:12;;;;;;;6.80;4.40;;;;;;;14.10;51.17;97006.52;105579;1257;72800;-35
2023/12/12 06:44:39;;;;;;;5.10;4.60;;;;;;;14.11;50.99;97006.86;105415;1260;61341;-34
2023/12/12 06:47:07;;;;;;;7.40;4.60;;;;;;;14.13;51.02;97009.83;105290;1256;61313;-36
2023/12/12 06:49:34;;;;;;;5.10;4.60;;;;;;;14.14;50.99;97008.85;105088;1258;74267;-34
2023/12/12 06:52:03;;;;;;;5.20;4.50;;;;;;;14.14;50.93;97011.16;105305;1261;65520;-35
2023/12/12 06:54:30;;;;;;;4.70;4.10;;;;;;;14.15;51.02;97003.96;105389;1261;71437;-35
2023/12/12 06:56:58;;;;;;;5.60;4.70;;;;;;;14.15;51.12;97015.21;105511;1261;61936;-35
2023/12/12 06:59:25;;;;;;;5.30;4.60;;;;;;;14.15;51.03;97006.75;105381;1256;179413;-35
2023/12/12 07:01:53;;;;;;;5.60;4.50;;;;;;;14.15;50.95;97011.83;105263;1257;73332;-35
2023/12/12 07:04:21;;;;;;;5.00;4.40;;;;;;;14.16;50.93;97014.23;105509;1256;66337;-35
2023/12/12 07:06:48;;;;;;;5.00;4.30;;;;;;;14.15;50.91;97004.14;105537;1257;72320;-36
2023/12/12 07:09:16;;;;;;;64.80;7.30;;;;;;;14.15;50.99;97002.89;105394;1261;61238;-35
2023/12/12 07:11:44;;;;;;;11.70;5.40;;;;;;;14.15;51.34;97010.30;105089;1258;61410;-35
2023/12/12 07:14:17;;;;;;;8.40;5.40;;;;;;;14.16;51.21;97005.33;105153;1256;74297;-34
2023/12/12 07:16:45;;;;;;;6.60;5.20;;;;;;;14.16;51.19;97008.46;105314;1256;64852;-35
2023/12/12 07:19:12;;;;;;;6.10;4.80;;;;;;;14.15;50.74;97009.91;104565;1261;72393;-36
2023/12/12 07:21:44;;;;;;;7.20;5.50;;;;;;;14.16;50.83;97013.63;105632;1258;61196;-36
2023/12/12 07:24:15;;;;;;;7.80;4.80;;;;;;;14.15;50.90;97010.52;105049;1257;61238;-34
2023/12/12 07:26:45;;;;;;;6.90;4.90;;;;;;;14.14;50.91;97011.10;105239;1256;74283;-35
2023/12/12 07:29:17;;;;;;;8.90;6.70;;;;;;;14.13;50.75;97015.45;105008;1258;67298;-35
2023/12/12 07:31:45;;;;;;;9.20;7.30;;;;;;;14.11;50.33;97014.21;105862;1258;72674;-35
2023/12/12 07:34:13;;;;;;;8.30;6.90;;;;;;;14.07;50.19;97018.80;105438;1258;61252;-34
2023/12/12 07:36:41;;;;;;;8.30;6.70;;;;;;;14.04;50.05;97021.52;104995;1256;61400;-35
2023/12/12 07:39:09;;;;;;;8.80;7.00;;;;;;;14.01;49.72;97025.20;105320;1260;74575;-34
2023/12/12 07:41:37;;;;;;;8.40;7.30;;;;;;;13.97;49.59;97025.83;105359;1260;65436;-35
2023/12/12 07:44:04;;;;;;;10.10;7.10;;;;;;;13.92;49.55;97023.45;105288;1258;72465;-37
2023/12/12 07:46:38;;;;;;;10.20;7.60;;;;;;;13.88;49.63;97033.94;105361;1262;61243;-35
2023/12/12 07:49:06;;;;;;;8.80;7.10;;;;;;;13.84;49.43;97030.41;105291;1260;61277;-35
2023/12/12 07:51:33;;;;;;;9.20;7.10;;;;;;;13.80;49.44;97033.52;105191;1260;74663;-35
2023/12/12 07:54:03;;;;;;;9.60;7.40;;;;;;;13.76;49.44;97032.36;105166;1255;64771;-35
2023/12/12 07:56:31;;;;;;;9.70;7.80;;;;;;;13.75;49.66;97030.48;105216;1257;71586;-35
2023/12/12 07:58:58;;;;;;;8.10;7.20;;;;;;;13.73;49.72;97030.88;105145;1260;61232;-35
2023/12/12 08:01:25;;;;;;;7.90;6.70;;;;;;;13.72;49.76;97034.40;105429;1256;61360;-35
2023/12/12 08:03:54;;;;;;;10.30;7.60;;;;;;;13.70;49.70;97027.11;105400;1256;74638;-34
2023/12/12 08:06:22;;;;;;;11.50;8.20;;;;;;;13.69;49.86;97030.69;105265;1260;67038;-34
2023/12/12 08:08:49;;;;;;;10.30;7.90;;;;;;;13.69;49.90;97023.05;105048;1256;72607;-35
2023/12/12 08:11:17;;;;;;;12.50;7.80;;;;;;;13.70;50.00;97023.81;105120;1260;61233;-35
2023/12/12 08:13:44;;;;;;;9.20;7.80;;;;;;;13.71;50.07;97024.14;105403;1256;62671;-35
2023/12/12 08:16:11;;;;;;;12.20;7.50;;;;;;;13.72;50.11;97026.86;105327;1256;74117;-35
2023/12/12 08:18:39;;;;;;;11.00;7.10;;;;;;;13.73;50.12;97027.81;105373;1260;67157;-36
2023/12/12 08:21:08;;;;;;;9.40;7.20;;;;;;;13.73;50.18;97026.66;105188;1256;72506;-36
2023/12/12 08:23:37;;;;;;;8.60;7.40;;;;;;;13.73;50.11;97027.89;105399;1260;61337;-36
2023/12/12 08:26:05;;;;;;;8.50;7.30;;;;;;;13.75;50.14;97034.48;105480;1257;61208;-35
2023/12/12 08:29:06;;;;;;;9.00;7.00;;;;;;;13.76;50.20;97027.20;105358;1260;74593;-34
2023/12/12 08:31:34;;;;;;;8.00;6.80;;;;;;;13.76;50.28;97033.84;105228;1261;66100;-35
2023/12/12 08:34:02;;;;;;;11.80;6.70;;;;;;;13.77;50.28;97036.33;104879;1256;72296;-37
2023/12/12 08:36:30;;;;;;;9.30;7.10;;;;;;;13.78;50.17;97039.81;104972;1260;61432;-37
2023/12/12 08:38:58;;;;;;;10.50;6.90;;;;;;;13.78;50.34;97038.98;104942;1257;61427;-35
2023/12/12 08:41:30;;;;;;;10.00;7.00;;;;;;;13.79;50.28;97034.33;105275;1259;74610;-37
2023/12/12 08:43:59;;;;;;;7.60;6.30;;;;;;;13.80;50.32;97033.73;105357;1260;66248;-36
2023/12/12 08:46:26;;;;;;;7.60;6.50;;;;;;;13.80;50.63;97031.18;107283;1258;72689;-37
2023/12/12 08:49:26;;;;;;;8.50;6.60;;;;;;;13.81;50.52;97025.84;105445;1258;61262;-36
2023/12/12 08:51:54;;;;;;;7.90;6.30;;;;;;;13.82;50.58;97028.57;105533;1257;61284;-36
2023/12/12 08:54:21;;;;;;;10.10;6.20;;;;;;;13.82;50.53;97029.04;105374;1257;74732;-35
2023/12/12 08:56:55;;;;;;;7.90;6.20;;;;;;;13.82;50.53;97020.65;105254;1259;66185;-36
2023/12/12 08:59:22;;;;;;;8.70;6.40;;;;;;;13.83;50.71;97021.90;104965;1260;72373;-36
2023/12/12 09:01:49;;;;;;;8.50;6.60;;;;;;;13.83;50.83;97024.36;106314;1257;61398;-36
2023/12/12 09:04:17;;;;;;;8.70;6.50;;;;;;;13.83;50.72;97019.23;104856;1257;61361;-36
2023/12/12 09:06:45;;;;;;;7.50;5.90;;;;;;;13.84;50.64;97017.17;105154;1256;74918;-36
2023/12/12 09:09:12;;;;;;;8.10;6.10;;;;;;;13.84;50.68;97013.11;105241;1260;65868;-36
2023/12/12 09:11:40;;;;;;;10.60;6.50;;;;;;;13.84;50.77;97014.89;105275;1256;73508;-35
2023/12/12 09:14:07;;;;;;;6.60;5.80;;;;;;;13.84;50.74;97010.58;104946;1262;61305;-36
2023/12/12 09:16:34;;;;;;;8.30;5.90;;;;;;;13.84;50.75;97010.71;108964;1257;60270;-51
2023/12/12 09:19:02;;;;;;;7.40;6.30;;;;;;;13.83;50.86;97011.48;108365;1256;73944;-44
2023/12/12 09:21:39;;;;;;;7.70;6.10;;;;;;;13.84;51.16;97014.04;106889;1262;66675;-46
2023/12/12 09:24:07;;;;;;;9.30;6.00;;;;;;;13.86;51.35;97011.00;105123;1257;72311;-46
2023/12/12 09:26:36;;;;;;;8.60;6.10;;;;;;;13.87;51.52;97014.45;108852;1256;60525;-47
2023/12/12 09:29:04;;;;;;;8.30;6.20;;;;;;;13.90;51.70;97017.13;109068;1256;60300;-47
2023/12/12 09:31:32;;;;;;;7.80;5.60;;;;;;;13.91;51.72;97011.96;106398;1258;75235;-48
2023/12/12 09:34:00;;;;;;;10.50;6.50;;;;;;;13.93;51.92;97012.58;109011;1255;64279;-47
2023/12/12 09:36:29;;;;;;;9.30;5.50;;;;;;;13.96;51.98;97016.17;108909;1257;73035;-43
2023/12/12 09:38:58;;;;;;;7.50;5.60;;;;;;;13.98;52.08;97015.65;104978;1257;61600;-41
2023/12/12 09:41:26;;;;;;;8.20;5.70;;;;;;;14.00;52.16;97018.51;105037;1257;61268;-44
2023/12/12 09:43:53;;;;;;;7.20;5.60;;;;;;;14.03;52.15;97016.20;105099;1258;74449;-45
2023/12/12 09:46:23;;;;;;;8.50;5.70;;;;;;;14.05;52.16;97015.74;105209;1259;65702;-44
2023/12/12 09:48:52;;;;;;;7.30;5.50;;;;;;;14.07;52.19;97014.33;104958;1261;72304;-45
2023/12/12 09:51:20;;;;;;;8.50;5.80;;;;;;;14.09;52.37;97019.15;104979;1256;61233;-46
2023/12/12 09:53:49;;;;;;;7.80;5.60;;;;;;;14.09;52.18;97019.02;104959;1256;61383;-47
2023/12/12 09:56:17;;;;;;;6.40;5.60;;;;;;;14.09;52.16;97021.33;105116;1256;74432;-44
2023/12/12 09:58:47;;;;;;;8.00;5.70;;;;;;;14.09;52.14;97023.86;106087;1255;66289;-45
2023/12/12 10:01:15;;;;;;;6.60;5.30;;;;;;;14.10;52.17;97026.58;104943;1261;73521;-47
2023/12/12 10:03:44;;;;;;;7.60;5.80;;;;;;;14.10;52.15;97023.66;105441;1256;61270;-46
2023/12/12 10:06:12;;;;;;;6.60;5.80;;;;;;;14.11;52.33;97025.38;109041;1255;59141;-44
2023/12/12 10:08:39;;;;;;;8.40;5.30;;;;;;;14.11;52.27;97026.02;105513;1257;74499;-44
2023/12/12 10:11:08;;;;;;;6.60;5.80;;;;;;;14.12;52.31;97026.02;104959;1260;65863;-43
2023/12/12 10:13:54;;;;;;;6.90;5.60;;;;;;;14.13;52.21;97026.85;105080;1258;72655;-43
2023/12/12 10:16:21;;;;;;;7.10;5.10;;;;;;;14.13;52.41;97026.68;105196;1257;61350;-43
2023/12/12 10:18:50;;;;;;;7.20;5.50;;;;;;;14.13;52.34;97027.77;105040;1260;61237;-43
2023/12/12 10:21:22;;;;;;;9.30;5.40;;;;;;;14.13;52.45;97026.39;104860;1257;74631;-45
2023/12/12 10:23:51;;;;;;;7.00;5.40;;;;;;;14.14;52.48;97029.70;106747;1256;66698;-44
2023/12/12 10:26:26;;;;;;;6.10;5.10;;;;;;;14.15;52.44;97031.66;105256;1261;75327;-43
2023/12/12 10:28:56;;;;;;;7.70;5.60;;;;;;;14.15;52.48;97028.61;105253;1260;61315;-42
2023/12/12 10:31:24;;;;;;;7.60;5.50;;;;;;;14.16;52.74;97030.17;105031;1256;61341;-43
2023/12/12 10:33:55;;;;;;;6.60;4.80;;;;;;;14.18;53.15;97028.54;104833;1257;75434;-53
2023/12/12 10:36:24;;;;;;;9.20;5.50;;;;;;;14.20;53.26;97030.20;104858;1262;66220;-51
2023/12/12 10:38:53;;;;;;;9.10;5.80;;;;;;;14.21;53.30;97029.79;106153;1259;72656;-52
2023/12/12 10:41:21;;;;;;;7.40;5.10;;;;;;;14.23;53.59;97030.10;105014;1262;61117;-45
2023/12/12 10:43:53;;;;;;;9.50;5.20;;;;;;;14.24;53.58;97025.96;106984;1255;61181;-44
2023/12/12 10:46:20;;;;;;;6.90;5.60;;;;;;;14.26;53.55;97029.48;105531;1260;74335;-48
2023/12/12 10:48:49;;;;;;;7.60;5.70;;;;;;;14.27;53.68;97027.27;105336;1261;66223;-40
2023/12/12 10:51:17;;;;;;;7.60;5.20;;;;;;;14.28;53.87;97022.33;105234;1259;72650;-54
2023/12/12 10:53:48;;;;;;;7.00;5.50;;;;;;;14.29;54.05;97021.21;105550;1259;61290;-48
2023/12/12 10:56:17;;;;;;;7.00;5.10;;;;;;;14.30;54.28;97025.09;105506;1257;61343;-49
2023/12/12 10:58:44;;;;;;;6.60;5.10;;;;;;;14.31;54.31;97025.67;105445;1259;74344;-49
2023/12/12 11:01:14;;;;;;;7.30;5.30;;;;;;;14.32;54.31;97023.95;105204;1260;66226;-58
2023/12/12 11:03:42;;;;;;;6.50;5.20;;;;;;;14.33;54.34;97026.89;105409;1258;72819;-44
2023/12/12 11:06:09;;;;;;;7.40;4.90;;;;;;;14.34;54.56;97030.64;105066;1257;61251;-43
2023/12/12 11:08:37;;;;;;;7.20;5.10;;;;;;;14.36;54.51;97034.70;108844;1257;60081;-51
2023/12/12 11:11:06;;;;;;;6.10;5.00;;;;;;;14.37;54.49;97034.89;108495;1257;74414;-51
2023/12/12 11:13:35;;;;;;;7.60;5.20;;;;;;;14.39;54.48;97034.00;106982;1259;65439;-43
2023/12/12 11:16:05;;;;;;;5.70;4.70;;;;;;;14.41;54.35;97040.23;105362;1262;72455;-44
2023/12/12 11:18:36;;;;;;;6.60;5.00;;;;;;;14.42;54.56;97038.71;105258;1257;61328;-54
2023/12/12 11:21:04;;;;;;;5.50;4.40;;;;;;;14.43;54.62;97039.16;109009;1257;58869;-40
2023/12/12 11:23:53;;;;;;;6.10;4.80;;;;;;;14.45;54.62;97046.44;109047;1258;74706;-52
2023/12/12 11:26:22;;;;;;;6.10;4.90;;;;;;;14.47;54.48;97048.81;109107;1255;66633;-51
2023/12/12 11:28:50;;;;;;;6.80;5.30;;;;;;;14.49;54.42;97048.41;109032;1255;71421;-49